sensor_id;sensor_type;location;lat;lon;timestamp;P1;durP1;ratioP1;P2;durP2;ratioP2
44862;SDS011;30597;49.628;10.850;2022-09-03T00:01:13;1.37;;;1.27;;
44862;SDS011;30597;49.628;10.850;2022-09-03T00:03:48;1.30;;;1.03;;
44862;SDS011;30597;49.628;10.850;2022-09-03T00:06:22;1.50;;;1.10;;
44862;SDS011;30597;49.628;10.850;2022-09-03T00:11:32;1.70;;;1.57;;
44862;SDS011;30597;49.628;10.850;2022-09-03T00:14:22;2.33;;;1.30;;
44862;SDS011;30597;49.628;10.850;2022-09-03T00:17:04;1.00;;;0.90;;
44862;SDS011;30597;49.628;10.850;2022-09-03T00:19:39;1.93;;;1.40;;
44862;SDS011;30597;49.628;10.850;2022-09-03T00:22:14;2.10;;;1.27;;
44862;SDS011;30597;49.628;10.850;2022-09-03T00:24:44;1.33;;;1.20;;
44862;SDS011;30597;49.628;10.850;2022-09-03T00:27:13;2.40;;;0.87;;
44862;SDS011;30597;49.628;10.850;2022-09-03T00:29:48;1.50;;;1.10;;
44862;SDS011;30597;49.628;10.850;2022-09-03T00:32:23;2.50;;;2.30;;
44862;SDS011;30597;49.628;10.850;2022-09-03T00:35:31;1.57;;;1.10;;
44862;SDS011;30597;49.628;10.850;2022-09-03T00:38:19;1.87;;;1.37;;
44862;SDS011;30597;49.628;10.850;2022-09-03T00:46:32;1.27;;;0.87;;
44862;SDS011;30597;49.628;10.850;2022-09-03T00:51:50;2.20;;;1.20;;
44862;SDS011;30597;49.628;10.850;2022-09-03T00:54:48;1.53;;;1.10;;
44862;SDS011;30597;49.628;10.850;2022-09-03T00:57:45;1.57;;;1.10;;
44862;SDS011;30597;49.628;10.850;2022-09-03T01:00:37;1.40;;;1.30;;
44862;SDS011;30597;49.628;10.850;2022-09-03T01:03:11;3.50;;;1.43;;
44862;SDS011;30597;49.628;10.850;2022-09-03T01:14:01;1.30;;;1.17;;
44862;SDS011;30597;49.628;10.850;2022-09-03T01:16:56;2.80;;;0.90;;
44862;SDS011;30597;49.628;10.850;2022-09-03T01:27:43;1.23;;;0.90;;
44862;SDS011;30597;49.628;10.850;2022-09-03T01:30:11;4.00;;;1.10;;
44862;SDS011;30597;49.628;10.850;2022-09-03T01:33:02;1.20;;;1.10;;
44862;SDS011;30597;49.628;10.850;2022-09-03T01:52:42;1.10;;;1.00;;
44862;SDS011;30597;49.628;10.850;2022-09-03T01:55:25;1.70;;;1.53;;
44862;SDS011;30597;49.628;10.850;2022-09-03T01:58:23;2.70;;;1.30;;
44862;SDS011;30597;49.628;10.850;2022-09-03T02:01:02;1.43;;;1.00;;
44862;SDS011;30597;49.628;10.850;2022-09-03T02:03:35;1.23;;;0.80;;
44862;SDS011;30597;49.628;10.850;2022-09-03T02:06:04;1.43;;;1.03;;
44862;SDS011;30597;49.628;10.850;2022-09-03T02:08:31;1.60;;;1.10;;
44862;SDS011;30597;49.628;10.850;2022-09-03T02:10:57;1.30;;;1.20;;
44862;SDS011;30597;49.628;10.850;2022-09-03T02:16:03;1.20;;;1.10;;
44862;SDS011;30597;49.628;10.850;2022-09-03T02:18:36;1.20;;;1.10;;
44862;SDS011;30597;49.628;10.850;2022-09-03T02:21:05;2.70;;;0.90;;
44862;SDS011;30597;49.628;10.850;2022-09-03T02:23:31;1.20;;;1.10;;
44862;SDS011;30597;49.628;10.850;2022-09-03T02:25:59;3.50;;;2.60;;
44862;SDS011;30597;49.628;10.850;2022-09-03T02:28:29;1.60;;;1.30;;
44862;SDS011;30597;49.628;10.850;2022-09-03T02:30:56;1.30;;;1.20;;
44862;SDS011;30597;49.628;10.850;2022-09-03T02:33:22;1.57;;;1.27;;
44862;SDS011;30597;49.628;10.850;2022-09-03T02:35:47;1.20;;;1.10;;
44862;SDS011;30597;49.628;10.850;2022-09-03T02:38:17;1.40;;;1.10;;
44862;SDS011;30597;49.628;10.850;2022-09-03T02:40:45;1.20;;;1.07;;
44862;SDS011;30597;49.628;10.850;2022-09-03T02:43:16;1.00;;;0.87;;
44862;SDS011;30597;49.628;10.850;2022-09-03T02:45:46;1.27;;;0.90;;
44862;SDS011;30597;49.628;10.850;2022-09-03T02:48:15;1.30;;;1.20;;
44862;SDS011;30597;49.628;10.850;2022-09-03T02:50:45;1.30;;;1.03;;
44862;SDS011;30597;49.628;10.850;2022-09-03T02:53:10;1.43;;;1.17;;
44862;SDS011;30597;49.628;10.850;2022-09-03T02:55:36;1.00;;;0.90;;
44862;SDS011;30597;49.628;10.850;2022-09-03T02:58:02;1.33;;;1.03;;
44862;SDS011;30597;49.628;10.850;2022-09-03T03:00:29;1.40;;;1.30;;
44862;SDS011;30597;49.628;10.850;2022-09-03T03:02:55;1.10;;;1.00;;
44862;SDS011;30597;49.628;10.850;2022-09-03T03:05:23;2.50;;;1.30;;
44862;SDS011;30597;49.628;10.850;2022-09-03T03:07:54;1.13;;;1.03;;
44862;SDS011;30597;49.628;10.850;2022-09-03T03:10:22;1.17;;;1.00;;
44862;SDS011;30597;49.628;10.850;2022-09-03T03:12:47;1.60;;;1.10;;
44862;SDS011;30597;49.628;10.850;2022-09-03T03:15:13;1.00;;;0.90;;
44862;SDS011;30597;49.628;10.850;2022-09-03T03:17:39;2.60;;;1.10;;
44862;SDS011;30597;49.628;10.850;2022-09-03T03:20:05;1.20;;;1.10;;
44862;SDS011;30597;49.628;10.850;2022-09-03T03:22:31;1.40;;;0.97;;
44862;SDS011;30597;49.628;10.850;2022-09-03T03:24:56;1.07;;;0.90;;
44862;SDS011;30597;49.628;10.850;2022-09-03T03:27:22;1.00;;;0.97;;
44862;SDS011;30597;49.628;10.850;2022-09-03T03:29:47;1.67;;;1.10;;
44862;SDS011;30597;49.628;10.850;2022-09-03T03:32:14;1.33;;;1.23;;
44862;SDS011;30597;49.628;10.850;2022-09-03T03:34:40;1.20;;;1.03;;
44862;SDS011;30597;49.628;10.850;2022-09-03T03:37:05;0.80;;;0.80;;
44862;SDS011;30597;49.628;10.850;2022-09-03T03:39:31;1.20;;;1.10;;
44862;SDS011;30597;49.628;10.850;2022-09-03T03:41:56;1.20;;;1.10;;
44862;SDS011;30597;49.628;10.850;2022-09-03T03:44:22;1.00;;;0.90;;
44862;SDS011;30597;49.628;10.850;2022-09-03T03:46:47;1.23;;;1.13;;
44862;SDS011;30597;49.628;10.850;2022-09-03T03:49:13;1.20;;;1.10;;
44862;SDS011;30597;49.628;10.850;2022-09-03T03:51:38;0.93;;;0.70;;
44862;SDS011;30597;49.628;10.850;2022-09-03T03:54:05;1.10;;;1.00;;
44862;SDS011;30597;49.628;10.850;2022-09-03T03:56:30;1.13;;;0.97;;
44862;SDS011;30597;49.628;10.850;2022-09-03T03:58:57;1.70;;;1.00;;
44862;SDS011;30597;49.628;10.850;2022-09-03T04:01:24;1.33;;;0.97;;
44862;SDS011;30597;49.628;10.850;2022-09-03T04:03:51;2.30;;;0.67;;
44862;SDS011;30597;49.628;10.850;2022-09-03T04:06:19;1.30;;;1.20;;
44862;SDS011;30597;49.628;10.850;2022-09-03T04:08:45;2.10;;;1.10;;
44862;SDS011;30597;49.628;10.850;2022-09-03T04:11:13;0.80;;;0.70;;
44862;SDS011;30597;49.628;10.850;2022-09-03T04:13:41;2.27;;;1.33;;
44862;SDS011;30597;49.628;10.850;2022-09-03T04:16:09;1.30;;;0.90;;
44862;SDS011;30597;49.628;10.850;2022-09-03T04:18:37;1.40;;;0.90;;
44862;SDS011;30597;49.628;10.850;2022-09-03T04:21:05;1.30;;;1.20;;
44862;SDS011;30597;49.628;10.850;2022-09-03T04:23:39;1.23;;;1.13;;
44862;SDS011;30597;49.628;10.850;2022-09-03T04:26:07;1.10;;;1.00;;
44862;SDS011;30597;49.628;10.850;2022-09-03T04:28:34;0.90;;;0.90;;
44862;SDS011;30597;49.628;10.850;2022-09-03T04:31:01;2.20;;;1.23;;
44862;SDS011;30597;49.628;10.850;2022-09-03T04:33:28;1.80;;;1.47;;
44862;SDS011;30597;49.628;10.850;2022-09-03T04:36:00;1.47;;;1.37;;
44862;SDS011;30597;49.628;10.850;2022-09-03T04:38:28;1.40;;;1.30;;
44862;SDS011;30597;49.628;10.850;2022-09-03T04:40:53;1.30;;;1.20;;
44862;SDS011;30597;49.628;10.850;2022-09-03T04:43:19;2.47;;;1.30;;
44862;SDS011;30597;49.628;10.850;2022-09-03T04:45:44;2.10;;;1.47;;
44862;SDS011;30597;49.628;10.850;2022-09-03T04:48:10;1.33;;;1.23;;
44862;SDS011;30597;49.628;10.850;2022-09-03T04:50:37;1.83;;;1.60;;
44862;SDS011;30597;49.628;10.850;2022-09-03T04:53:03;1.40;;;1.30;;
44862;SDS011;30597;49.628;10.850;2022-09-03T04:55:33;1.60;;;1.30;;
44862;SDS011;30597;49.628;10.850;2022-09-03T04:58:00;1.37;;;1.00;;
44862;SDS011;30597;49.628;10.850;2022-09-03T05:00:25;1.10;;;1.00;;
44862;SDS011;30597;49.628;10.850;2022-09-03T05:02:51;1.87;;;1.30;;
44862;SDS011;30597;49.628;10.850;2022-09-03T05:05:17;2.07;;;1.50;;
44862;SDS011;30597;49.628;10.850;2022-09-03T05:07:43;2.30;;;1.20;;
44862;SDS011;30597;49.628;10.850;2022-09-03T05:10:09;2.03;;;1.67;;
44862;SDS011;30597;49.628;10.850;2022-09-03T05:12:45;1.50;;;1.17;;
44862;SDS011;30597;49.628;10.850;2022-09-03T05:15:12;2.43;;;1.20;;
44862;SDS011;30597;49.628;10.850;2022-09-03T05:17:38;1.40;;;1.30;;
44862;SDS011;30597;49.628;10.850;2022-09-03T05:20:04;1.70;;;1.10;;
44862;SDS011;30597;49.628;10.850;2022-09-03T05:22:32;1.67;;;1.57;;
44862;SDS011;30597;49.628;10.850;2022-09-03T05:24:58;1.93;;;1.73;;
44862;SDS011;30597;49.628;10.850;2022-09-03T05:27:24;3.67;;;2.97;;
44862;SDS011;30597;49.628;10.850;2022-09-03T05:29:49;2.97;;;1.90;;
44862;SDS011;30597;49.628;10.850;2022-09-03T05:32:15;2.70;;;2.50;;
44862;SDS011;30597;49.628;10.850;2022-09-03T05:34:41;2.33;;;2.13;;
44862;SDS011;30597;49.628;10.850;2022-09-03T05:37:08;2.17;;;1.90;;
44862;SDS011;30597;49.628;10.850;2022-09-03T05:39:33;3.20;;;1.83;;
44862;SDS011;30597;49.628;10.850;2022-09-03T05:41:59;3.90;;;3.30;;
44862;SDS011;30597;49.628;10.850;2022-09-03T05:44:25;7.03;;;5.40;;
44862;SDS011;30597;49.628;10.850;2022-09-03T05:46:50;4.87;;;3.50;;
44862;SDS011;30597;49.628;10.850;2022-09-03T05:49:17;7.67;;;6.33;;
44862;SDS011;30597;49.628;10.850;2022-09-03T05:51:42;7.87;;;5.47;;
44862;SDS011;30597;49.628;10.850;2022-09-03T05:57:30;4.67;;;4.13;;
44862;SDS011;30597;49.628;10.850;2022-09-03T05:59:56;3.80;;;3.50;;
44862;SDS011;30597;49.628;10.850;2022-09-03T06:02:21;5.40;;;4.63;;
44862;SDS011;30597;49.628;10.850;2022-09-03T06:04:47;5.87;;;5.30;;
44862;SDS011;30597;49.628;10.850;2022-09-03T06:07:13;7.13;;;5.60;;
44862;SDS011;30597;49.628;10.850;2022-09-03T06:09:39;5.73;;;5.23;;
44862;SDS011;30597;49.628;10.850;2022-09-03T06:12:05;6.20;;;5.60;;
44862;SDS011;30597;49.628;10.850;2022-09-03T06:14:31;6.43;;;5.30;;
44862;SDS011;30597;49.628;10.850;2022-09-03T06:16:56;5.30;;;4.00;;
44862;SDS011;30597;49.628;10.850;2022-09-03T06:19:22;4.30;;;3.90;;
44862;SDS011;30597;49.628;10.850;2022-09-03T06:21:47;4.37;;;3.10;;
44862;SDS011;30597;49.628;10.850;2022-09-03T06:24:17;3.17;;;2.50;;
44862;SDS011;30597;49.628;10.850;2022-09-03T06:26:47;4.90;;;2.67;;
44862;SDS011;30597;49.628;10.850;2022-09-03T06:29:13;2.50;;;2.30;;
44862;SDS011;30597;49.628;10.850;2022-09-03T06:31:39;3.20;;;2.33;;
44862;SDS011;30597;49.628;10.850;2022-09-03T06:34:04;2.33;;;2.13;;
44862;SDS011;30597;49.628;10.850;2022-09-03T06:36:30;3.33;;;2.10;;
44862;SDS011;30597;49.628;10.850;2022-09-03T06:38:56;3.93;;;2.73;;
44862;SDS011;30597;49.628;10.850;2022-09-03T06:41:23;8.63;;;2.67;;
44862;SDS011;30597;49.628;10.850;2022-09-03T06:43:54;3.07;;;2.60;;
44862;SDS011;30597;49.628;10.850;2022-09-03T06:46:29;4.70;;;2.77;;
44862;SDS011;30597;49.628;10.850;2022-09-03T06:48:56;6.20;;;2.57;;
44862;SDS011;30597;49.628;10.850;2022-09-03T06:51:22;4.70;;;2.50;;
44862;SDS011;30597;49.628;10.850;2022-09-03T06:53:50;4.47;;;2.53;;
44862;SDS011;30597;49.628;10.850;2022-09-03T06:56:19;3.17;;;2.87;;
44862;SDS011;30597;49.628;10.850;2022-09-03T06:58:51;3.00;;;1.97;;
44862;SDS011;30597;49.628;10.850;2022-09-03T07:01:19;2.83;;;2.50;;
44862;SDS011;30597;49.628;10.850;2022-09-03T07:03:55;6.60;;;2.40;;
44862;SDS011;30597;49.628;10.850;2022-09-03T07:06:24;2.80;;;1.87;;
44862;SDS011;30597;49.628;10.850;2022-09-03T07:08:51;2.87;;;2.20;;
44862;SDS011;30597;49.628;10.850;2022-09-03T07:11:18;2.80;;;2.50;;
44862;SDS011;30597;49.628;10.850;2022-09-03T07:13:47;5.30;;;2.47;;
44862;SDS011;30597;49.628;10.850;2022-09-03T07:16:17;2.70;;;2.10;;
44862;SDS011;30597;49.628;10.850;2022-09-03T07:18:44;3.13;;;1.93;;
44862;SDS011;30597;49.628;10.850;2022-09-03T07:21:15;3.00;;;2.00;;
44862;SDS011;30597;49.628;10.850;2022-09-03T07:23:42;2.80;;;1.83;;
44862;SDS011;30597;49.628;10.850;2022-09-03T07:26:09;4.23;;;2.10;;
44862;SDS011;30597;49.628;10.850;2022-09-03T07:28:40;2.70;;;2.10;;
44862;SDS011;30597;49.628;10.850;2022-09-03T07:33:35;8.10;;;5.80;;
44862;SDS011;30597;49.628;10.850;2022-09-03T07:36:06;9.37;;;5.70;;
44862;SDS011;30597;49.628;10.850;2022-09-03T07:38:33;8.93;;;4.50;;
44862;SDS011;30597;49.628;10.850;2022-09-03T07:41:00;6.87;;;3.73;;
44862;SDS011;30597;49.628;10.850;2022-09-03T07:43:28;4.13;;;3.17;;
44862;SDS011;30597;49.628;10.850;2022-09-03T07:45:57;2.93;;;2.20;;
44862;SDS011;30597;49.628;10.850;2022-09-03T07:48:23;3.63;;;2.40;;
44862;SDS011;30597;49.628;10.850;2022-09-03T07:50:49;6.20;;;2.70;;
44862;SDS011;30597;49.628;10.850;2022-09-03T07:53:15;3.43;;;2.57;;
44862;SDS011;30597;49.628;10.850;2022-09-03T07:55:41;4.80;;;2.20;;
44862;SDS011;30597;49.628;10.850;2022-09-03T07:58:08;4.87;;;2.10;;
44862;SDS011;30597;49.628;10.850;2022-09-03T08:00:37;2.97;;;2.57;;
44862;SDS011;30597;49.628;10.850;2022-09-03T08:03:03;3.80;;;2.07;;
44862;SDS011;30597;49.628;10.850;2022-09-03T08:05:32;5.13;;;2.00;;
44862;SDS011;30597;49.628;10.850;2022-09-03T08:08:00;2.83;;;1.87;;
44862;SDS011;30597;49.628;10.850;2022-09-03T08:10:27;3.37;;;2.13;;
44862;SDS011;30597;49.628;10.850;2022-09-03T08:12:55;3.33;;;1.80;;
44862;SDS011;30597;49.628;10.850;2022-09-03T08:15:22;2.03;;;1.73;;
44862;SDS011;30597;49.628;10.850;2022-09-03T08:17:48;2.23;;;1.80;;
44862;SDS011;30597;49.628;10.850;2022-09-03T08:20:13;3.70;;;2.10;;
44862;SDS011;30597;49.628;10.850;2022-09-03T08:22:39;3.57;;;1.87;;
44862;SDS011;30597;49.628;10.850;2022-09-03T08:25:06;3.20;;;1.70;;
44862;SDS011;30597;49.628;10.850;2022-09-03T08:27:31;3.10;;;1.90;;
44862;SDS011;30597;49.628;10.850;2022-09-03T08:29:57;2.80;;;1.77;;
44862;SDS011;30597;49.628;10.850;2022-09-03T08:32:22;2.00;;;1.60;;
44862;SDS011;30597;49.628;10.850;2022-09-03T08:34:48;2.20;;;2.00;;
44862;SDS011;30597;49.628;10.850;2022-09-03T08:37:16;2.90;;;1.80;;
44862;SDS011;30597;49.628;10.850;2022-09-03T08:39:42;3.43;;;2.20;;
44862;SDS011;30597;49.628;10.850;2022-09-03T08:44:49;1.60;;;1.30;;
44862;SDS011;30597;49.628;10.850;2022-09-03T08:47:25;1.83;;;1.70;;
44862;SDS011;30597;49.628;10.850;2022-09-03T08:50:21;1.80;;;1.53;;
44862;SDS011;30597;49.628;10.850;2022-09-03T08:55:51;1.80;;;1.70;;
44862;SDS011;30597;49.628;10.850;2022-09-03T08:58:30;1.63;;;1.53;;
44862;SDS011;30597;49.628;10.850;2022-09-03T09:06:09;1.70;;;1.60;;
44862;SDS011;30597;49.628;10.850;2022-09-03T09:08:50;1.70;;;1.53;;
44862;SDS011;30597;49.628;10.850;2022-09-03T09:19:30;1.63;;;1.40;;
44862;SDS011;30597;49.628;10.850;2022-09-03T09:22:23;1.57;;;1.47;;
44862;SDS011;30597;49.628;10.850;2022-09-03T09:24:54;2.53;;;1.80;;
44862;SDS011;30597;49.628;10.850;2022-09-03T09:27:23;2.33;;;1.50;;
44862;SDS011;30597;49.628;10.850;2022-09-03T09:29:49;1.30;;;1.20;;
44862;SDS011;30597;49.628;10.850;2022-09-03T09:32:16;1.70;;;1.60;;
44862;SDS011;30597;49.628;10.850;2022-09-03T09:34:44;2.37;;;1.50;;
44862;SDS011;30597;49.628;10.850;2022-09-03T09:37:11;2.90;;;1.67;;
44862;SDS011;30597;49.628;10.850;2022-09-03T09:39:38;2.40;;;2.20;;
44862;SDS011;30597;49.628;10.850;2022-09-03T09:42:06;4.73;;;1.83;;
44862;SDS011;30597;49.628;10.850;2022-09-03T09:44:39;2.10;;;1.77;;
44862;SDS011;30597;49.628;10.850;2022-09-03T09:47:15;2.17;;;1.80;;
44862;SDS011;30597;49.628;10.850;2022-09-03T09:52:17;3.27;;;1.90;;
44862;SDS011;30597;49.628;10.850;2022-09-03T09:54:43;2.20;;;1.97;;
44862;SDS011;30597;49.628;10.850;2022-09-03T09:57:22;2.80;;;2.17;;
44862;SDS011;30597;49.628;10.850;2022-09-03T09:59:49;3.50;;;2.67;;
44862;SDS011;30597;49.628;10.850;2022-09-03T10:02:26;5.93;;;3.37;;
44862;SDS011;30597;49.628;10.850;2022-09-03T10:05:18;6.87;;;4.50;;
44862;SDS011;30597;49.628;10.850;2022-09-03T10:10:22;11.20;;;7.70;;
44862;SDS011;30597;49.628;10.850;2022-09-03T10:21:12;15.40;;;6.40;;
44862;SDS011;30597;49.628;10.850;2022-09-03T10:23:49;12.83;;;6.80;;
44862;SDS011;30597;49.628;10.850;2022-09-03T10:26:25;20.97;;;8.40;;
44862;SDS011;30597;49.628;10.850;2022-09-03T10:28:55;15.03;;;7.37;;
44862;SDS011;30597;49.628;10.850;2022-09-03T10:34:09;18.83;;;10.60;;
44862;SDS011;30597;49.628;10.850;2022-09-03T10:37:08;24.67;;;12.10;;
44862;SDS011;30597;49.628;10.850;2022-09-03T10:40:13;19.47;;;11.80;;
44862;SDS011;30597;49.628;10.850;2022-09-03T10:46:06;17.93;;;11.40;;
44862;SDS011;30597;49.628;10.850;2022-09-03T10:48:49;16.37;;;10.23;;
44862;SDS011;30597;49.628;10.850;2022-09-03T10:51:46;23.03;;;10.87;;
44862;SDS011;30597;49.628;10.850;2022-09-03T10:57:00;22.80;;;10.10;;
44862;SDS011;30597;49.628;10.850;2022-09-03T10:59:45;25.47;;;10.27;;
44862;SDS011;30597;49.628;10.850;2022-09-03T11:06:05;23.10;;;9.80;;
44862;SDS011;30597;49.628;10.850;2022-09-03T11:08:45;19.93;;;9.47;;
44862;SDS011;30597;49.628;10.850;2022-09-03T11:11:18;18.83;;;10.83;;
44862;SDS011;30597;49.628;10.850;2022-09-03T11:13:53;19.97;;;9.57;;
44862;SDS011;30597;49.628;10.850;2022-09-03T11:16:24;17.63;;;8.80;;
44862;SDS011;30597;49.628;10.850;2022-09-03T11:18:56;14.60;;;8.03;;
44862;SDS011;30597;49.628;10.850;2022-09-03T11:21:29;22.30;;;10.27;;
44862;SDS011;30597;49.628;10.850;2022-09-03T11:24:16;23.60;;;9.00;;
44862;SDS011;30597;49.628;10.850;2022-09-03T11:26:52;18.33;;;9.47;;
44862;SDS011;30597;49.628;10.850;2022-09-03T11:29:33;16.70;;;7.97;;
44862;SDS011;30597;49.628;10.850;2022-09-03T11:32:23;15.77;;;8.13;;
44862;SDS011;30597;49.628;10.850;2022-09-03T11:34:57;14.53;;;7.60;;
44862;SDS011;30597;49.628;10.850;2022-09-03T11:42:38;13.37;;;6.43;;
44862;SDS011;30597;49.628;10.850;2022-09-03T11:45:13;15.53;;;7.97;;
44862;SDS011;30597;49.628;10.850;2022-09-03T11:47:54;12.40;;;7.10;;
44862;SDS011;30597;49.628;10.850;2022-09-03T11:50:30;15.47;;;8.20;;
44862;SDS011;30597;49.628;10.850;2022-09-03T11:55:47;12.80;;;6.93;;
44862;SDS011;30597;49.628;10.850;2022-09-03T11:58:28;12.67;;;7.30;;
44862;SDS011;30597;49.628;10.850;2022-09-03T12:01:00;11.10;;;7.03;;
44862;SDS011;30597;49.628;10.850;2022-09-03T12:03:29;11.90;;;7.47;;
44862;SDS011;30597;49.628;10.850;2022-09-03T12:06:13;15.57;;;6.77;;
44862;SDS011;30597;49.628;10.850;2022-09-03T12:08:55;8.93;;;6.63;;
44862;SDS011;30597;49.628;10.850;2022-09-03T12:14:22;10.97;;;7.50;;
44862;SDS011;30597;49.628;10.850;2022-09-03T12:17:06;11.40;;;6.50;;
44862;SDS011;30597;49.628;10.850;2022-09-03T12:19:57;12.83;;;6.67;;
44862;SDS011;30597;49.628;10.850;2022-09-03T12:22:24;11.27;;;6.03;;
44862;SDS011;30597;49.628;10.850;2022-09-03T12:24:52;15.37;;;7.30;;
44862;SDS011;30597;49.628;10.850;2022-09-03T12:27:21;9.33;;;6.30;;
44862;SDS011;30597;49.628;10.850;2022-09-03T12:29:52;7.93;;;5.73;;
44862;SDS011;30597;49.628;10.850;2022-09-03T12:32:29;11.03;;;7.33;;
44862;SDS011;30597;49.628;10.850;2022-09-03T12:35:09;13.63;;;6.70;;
44862;SDS011;30597;49.628;10.850;2022-09-03T12:37:40;9.73;;;5.40;;
44862;SDS011;30597;49.628;10.850;2022-09-03T12:40:20;13.27;;;6.60;;
44862;SDS011;30597;49.628;10.850;2022-09-03T12:42:50;10.67;;;6.20;;
44862;SDS011;30597;49.628;10.850;2022-09-03T12:45:18;11.03;;;6.30;;
44862;SDS011;30597;49.628;10.850;2022-09-03T12:47:45;10.40;;;5.80;;
44862;SDS011;30597;49.628;10.850;2022-09-03T12:50:12;9.97;;;5.10;;
44862;SDS011;30597;49.628;10.850;2022-09-03T12:57:55;7.97;;;5.50;;
44862;SDS011;30597;49.628;10.850;2022-09-03T13:00:31;10.83;;;5.87;;
44862;SDS011;30597;49.628;10.850;2022-09-03T13:05:29;9.70;;;6.03;;
44862;SDS011;30597;49.628;10.850;2022-09-03T13:08:01;9.10;;;4.80;;
44862;SDS011;30597;49.628;10.850;2022-09-03T13:10:35;9.80;;;5.00;;
44862;SDS011;30597;49.628;10.850;2022-09-03T13:13:27;9.60;;;5.63;;
44862;SDS011;30597;49.628;10.850;2022-09-03T13:29:13;7.23;;;4.37;;
44862;SDS011;30597;49.628;10.850;2022-09-03T13:32:01;10.73;;;5.30;;
44862;SDS011;30597;49.628;10.850;2022-09-03T13:34:41;7.83;;;4.67;;
44862;SDS011;30597;49.628;10.850;2022-09-03T13:37:20;8.10;;;4.90;;
44862;SDS011;30597;49.628;10.850;2022-09-03T13:39:57;8.83;;;6.00;;
44862;SDS011;30597;49.628;10.850;2022-09-03T13:42:30;5.73;;;4.00;;
44862;SDS011;30597;49.628;10.850;2022-09-03T13:47:36;7.87;;;4.60;;
44862;SDS011;30597;49.628;10.850;2022-09-03T13:50:28;7.60;;;5.03;;
44862;SDS011;30597;49.628;10.850;2022-09-03T13:55:48;5.70;;;4.40;;
44862;SDS011;30597;49.628;10.850;2022-09-03T14:03:31;8.33;;;4.63;;
44862;SDS011;30597;49.628;10.850;2022-09-03T14:17:35;6.80;;;4.33;;
44862;SDS011;30597;49.628;10.850;2022-09-03T14:20:19;5.33;;;3.90;;
44862;SDS011;30597;49.628;10.850;2022-09-03T14:25:25;7.77;;;4.60;;
44862;SDS011;30597;49.628;10.850;2022-09-03T14:27:51;6.23;;;4.43;;
44862;SDS011;30597;49.628;10.850;2022-09-03T14:50:02;7.13;;;4.47;;
44862;SDS011;30597;49.628;10.850;2022-09-03T14:55:37;7.27;;;4.47;;
44862;SDS011;30597;49.628;10.850;2022-09-03T14:58:46;8.73;;;5.13;;
44862;SDS011;30597;49.628;10.850;2022-09-03T15:07:17;6.20;;;4.53;;
44862;SDS011;30597;49.628;10.850;2022-09-03T15:12:47;6.80;;;4.60;;
44862;SDS011;30597;49.628;10.850;2022-09-03T15:18:14;6.73;;;4.50;;
44862;SDS011;30597;49.628;10.850;2022-09-03T15:29:12;4.70;;;3.73;;
44862;SDS011;30597;49.628;10.850;2022-09-03T15:37:31;5.20;;;3.93;;
44862;SDS011;30597;49.628;10.850;2022-09-03T15:40:00;6.90;;;4.63;;
44862;SDS011;30597;49.628;10.850;2022-09-03T15:42:32;5.30;;;4.37;;
44862;SDS011;30597;49.628;10.850;2022-09-03T15:45:28;5.53;;;4.10;;
44862;SDS011;30597;49.628;10.850;2022-09-03T15:47:55;4.60;;;3.90;;
44862;SDS011;30597;49.628;10.850;2022-09-03T15:50:31;7.60;;;4.50;;
44862;SDS011;30597;49.628;10.850;2022-09-03T15:55:38;8.80;;;4.43;;
44862;SDS011;30597;49.628;10.850;2022-09-03T15:58:09;5.17;;;3.90;;
44862;SDS011;30597;49.628;10.850;2022-09-03T16:03:46;7.13;;;4.27;;
44862;SDS011;30597;49.628;10.850;2022-09-03T16:15:25;6.03;;;4.60;;
44862;SDS011;30597;49.628;10.850;2022-09-03T16:18:02;4.03;;;3.67;;
44862;SDS011;30597;49.628;10.850;2022-09-03T16:20:42;5.90;;;4.23;;
44862;SDS011;30597;49.628;10.850;2022-09-03T16:23:20;6.57;;;3.80;;
44862;SDS011;30597;49.628;10.850;2022-09-03T16:26:24;4.80;;;3.70;;
44862;SDS011;30597;49.628;10.850;2022-09-03T16:29:07;5.57;;;4.40;;
44862;SDS011;30597;49.628;10.850;2022-09-03T16:31:41;4.03;;;3.20;;
44862;SDS011;30597;49.628;10.850;2022-09-03T16:50:25;5.70;;;4.00;;
44862;SDS011;30597;49.628;10.850;2022-09-03T16:53:09;6.73;;;4.50;;
44862;SDS011;30597;49.628;10.850;2022-09-03T16:58:24;5.33;;;4.10;;
44862;SDS011;30597;49.628;10.850;2022-09-03T17:01:13;5.80;;;4.03;;
44862;SDS011;30597;49.628;10.850;2022-09-03T17:04:20;6.70;;;4.53;;
44862;SDS011;30597;49.628;10.850;2022-09-03T17:07:31;12.00;;;5.57;;
44862;SDS011;30597;49.628;10.850;2022-09-03T17:10:39;8.10;;;4.90;;
44862;SDS011;30597;49.628;10.850;2022-09-03T17:21:17;9.43;;;5.40;;
44862;SDS011;30597;49.628;10.850;2022-09-03T17:24:22;6.53;;;5.10;;
44862;SDS011;30597;49.628;10.850;2022-09-03T17:27:17;5.60;;;4.83;;
44862;SDS011;30597;49.628;10.850;2022-09-03T17:35:19;5.20;;;4.70;;
44862;SDS011;30597;49.628;10.850;2022-09-03T17:47:26;5.53;;;5.03;;
44862;SDS011;30597;49.628;10.850;2022-09-03T17:49:20;9.70;;;5.20;;
44862;SDS011;30597;49.628;10.850;2022-09-03T17:51:57;10.87;;;5.83;;
44862;SDS011;30597;49.628;10.850;2022-09-03T17:54:43;14.27;;;6.37;;
44862;SDS011;30597;49.628;10.850;2022-09-03T17:57:14;10.20;;;6.50;;
44862;SDS011;30597;49.628;10.850;2022-09-03T17:59:52;11.63;;;6.60;;
44862;SDS011;30597;49.628;10.850;2022-09-03T18:04:51;16.30;;;5.80;;
44862;SDS011;30597;49.628;10.850;2022-09-03T18:07:37;13.53;;;9.07;;
44862;SDS011;30597;49.628;10.850;2022-09-03T18:10:18;16.93;;;9.33;;
44862;SDS011;30597;49.628;10.850;2022-09-03T18:18:27;18.03;;;12.67;;
44862;SDS011;30597;49.628;10.850;2022-09-03T18:20:58;17.20;;;11.67;;
44862;SDS011;30597;49.628;10.850;2022-09-03T18:26:42;18.10;;;10.40;;
44862;SDS011;30597;49.628;10.850;2022-09-03T18:29:32;17.93;;;9.90;;
44862;SDS011;30597;49.628;10.850;2022-09-03T18:32:20;18.67;;;10.50;;
44862;SDS011;30597;49.628;10.850;2022-09-03T18:35:04;11.57;;;10.00;;
44862;SDS011;30597;49.628;10.850;2022-09-03T18:37:51;15.13;;;9.70;;
44862;SDS011;30597;49.628;10.850;2022-09-03T18:40:42;17.63;;;11.00;;
44862;SDS011;30597;49.628;10.850;2022-09-03T18:43:55;15.50;;;10.50;;
44862;SDS011;30597;49.628;10.850;2022-09-03T18:46:58;12.63;;;9.37;;
44862;SDS011;30597;49.628;10.850;2022-09-03T18:50:18;17.30;;;9.83;;
44862;SDS011;30597;49.628;10.850;2022-09-03T18:54:14;12.93;;;9.47;;
44862;SDS011;30597;49.628;10.850;2022-09-03T18:56:51;18.70;;;10.10;;
44862;SDS011;30597;49.628;10.850;2022-09-03T19:02:28;12.20;;;7.83;;
44862;SDS011;30597;49.628;10.850;2022-09-03T19:06:10;13.27;;;8.23;;
44862;SDS011;30597;49.628;10.850;2022-09-03T19:08:37;12.33;;;8.07;;
44862;SDS011;30597;49.628;10.850;2022-09-03T19:14:29;9.70;;;7.13;;
44862;SDS011;30597;49.628;10.850;2022-09-03T19:17:23;7.63;;;5.90;;
44862;SDS011;30597;49.628;10.850;2022-09-03T19:20:30;8.00;;;6.50;;
44862;SDS011;30597;49.628;10.850;2022-09-03T19:23:17;6.73;;;6.10;;
44862;SDS011;30597;49.628;10.850;2022-09-03T19:26:17;7.93;;;5.53;;
44862;SDS011;30597;49.628;10.850;2022-09-03T19:29:17;6.33;;;5.17;;
44862;SDS011;30597;49.628;10.850;2022-09-03T19:32:27;6.17;;;4.80;;
44862;SDS011;30597;49.628;10.850;2022-09-03T19:35:33;7.20;;;4.90;;
44862;SDS011;30597;49.628;10.850;2022-09-03T19:38:48;8.43;;;5.00;;
44862;SDS011;30597;49.628;10.850;2022-09-03T19:42:09;7.80;;;4.60;;
44862;SDS011;30597;49.628;10.850;2022-09-03T19:51:08;4.90;;;3.60;;
44862;SDS011;30597;49.628;10.850;2022-09-03T19:54:01;4.83;;;3.70;;
44862;SDS011;30597;49.628;10.850;2022-09-03T19:56:47;5.53;;;3.60;;